createdAt,value
2024-02-23T00:00:48.199Z,16.37
2024-02-23T00:03:15.844Z,15.99
2024-02-23T00:05:43.179Z,16.33
2024-02-23T00:08:10.902Z,15.61
2024-02-23T00:10:38.549Z,15.35
2024-02-23T00:13:05.757Z,15.52
2024-02-23T00:15:33.763Z,15.52
2024-02-23T00:18:01.386Z,15.92
2024-02-23T00:20:28.928Z,15.70
2024-02-23T00:22:56.295Z,15.66
2024-02-23T00:25:24.403Z,16.16
2024-02-23T00:27:51.698Z,16.44
2024-02-23T00:30:19.056Z,16.47
2024-02-23T00:32:47.410Z,16.64
2024-02-23T00:35:16.162Z,16.44
2024-02-23T00:37:43.443Z,17.09
2024-02-23T00:40:11.568Z,16.62
2024-02-23T00:42:38.769Z,16.29
2024-02-23T00:45:06.196Z,17.06
2024-02-23T00:47:36.776Z,16.94
2024-02-23T00:50:04.178Z,16.93
2024-02-23T00:52:31.379Z,17.21
2024-02-23T00:54:59.040Z,16.23
2024-02-23T00:57:31.217Z,16.45
2024-02-23T00:59:58.938Z,17.02
2024-02-23T01:02:26.183Z,17.19
2024-02-23T01:04:58.069Z,16.58
2024-02-23T01:07:26.559Z,16.39
2024-02-23T01:09:55.191Z,16.37
2024-02-23T01:12:22.671Z,16.59
2024-02-23T01:14:50.399Z,15.59
2024-02-23T01:17:17.720Z,15.63
2024-02-23T01:19:45.795Z,15.48
2024-02-23T01:22:13.630Z,15.26
2024-02-23T01:24:40.801Z,14.86
2024-02-23T01:27:08.115Z,16.24
2024-02-23T01:29:35.611Z,16.36
2024-02-23T01:32:03.060Z,15.65
2024-02-23T01:34:30.303Z,15.61
2024-02-23T01:36:57.930Z,16.04
2024-02-23T01:39:25.170Z,16.34
2024-02-23T01:41:52.408Z,16.82
2024-02-23T01:44:21.926Z,16.44
2024-02-23T01:46:49.258Z,15.89
2024-02-23T01:49:16.638Z,16.63
2024-02-23T01:51:44.446Z,16.09
2024-02-23T01:54:11.770Z,16.22
2024-02-23T01:56:40.847Z,15.90
2024-02-23T01:59:08.523Z,16.34
2024-02-23T02:01:35.743Z,16.74
2024-02-23T02:04:03.369Z,16.35
2024-02-23T02:06:30.756Z,16.83
2024-02-23T02:08:58.070Z,16.58
2024-02-23T02:11:25.642Z,16.29
2024-02-23T02:13:52.929Z,15.70
2024-02-23T02:16:20.124Z,15.77
2024-02-23T02:18:47.668Z,15.26
2024-02-23T02:21:15.124Z,15.79
2024-02-23T02:23:42.657Z,16.01
2024-02-23T02:26:10.317Z,16.09
2024-02-23T02:28:37.574Z,15.60
2024-02-23T02:31:04.782Z,16.15
2024-02-23T02:33:32.358Z,16.50
2024-02-23T02:36:00.209Z,16.17
2024-02-23T02:38:27.573Z,16.13
2024-02-23T02:40:55.106Z,16.31
2024-02-23T02:43:22.549Z,16.38
2024-02-23T02:45:50.197Z,16.81
2024-02-23T02:48:17.828Z,16.93
2024-02-23T02:50:45.564Z,17.26
2024-02-23T02:53:12.841Z,17.17
2024-02-23T02:55:42.320Z,17.09
2024-02-23T02:58:09.753Z,17.69
2024-02-23T03:00:36.924Z,16.73
2024-02-23T03:03:04.564Z,16.90
2024-02-23T03:05:31.878Z,16.71
2024-02-23T03:07:59.344Z,17.34
2024-02-23T03:10:26.825Z,17.09
2024-02-23T03:12:54.024Z,17.43
2024-02-23T03:15:21.264Z,17.27
2024-02-23T03:17:48.852Z,17.44
2024-02-23T03:20:16.794Z,17.82
2024-02-23T03:22:44.071Z,17.29
2024-02-23T03:25:11.561Z,17.39
2024-02-23T03:27:38.796Z,17.96
2024-02-23T03:30:06.448Z,17.99
2024-02-23T03:32:37.724Z,17.92
2024-02-23T03:35:06.154Z,17.85
2024-02-23T03:37:33.761Z,17.66
2024-02-23T03:40:01.973Z,17.57
2024-02-23T03:42:29.274Z,17.69
2024-02-23T03:44:56.748Z,17.40
2024-02-23T03:47:24.039Z,17.41
2024-02-23T03:49:51.334Z,16.65
2024-02-23T03:52:18.876Z,16.29
2024-02-23T03:54:46.127Z,15.87
2024-02-23T03:57:13.289Z,16.16
2024-02-23T03:59:42.276Z,15.78
2024-02-23T04:02:10.060Z,16.23
2024-02-23T04:04:37.677Z,16.12
2024-02-23T04:07:05.047Z,15.70
2024-02-23T04:09:32.892Z,15.37
2024-02-23T04:12:00.673Z,15.48
2024-02-23T04:14:28.048Z,16.17
2024-02-23T04:16:55.888Z,15.99
2024-02-23T04:19:23.480Z,15.58
2024-02-23T04:21:50.700Z,14.83
2024-02-23T04:24:17.946Z,15.46
2024-02-23T04:26:45.393Z,15.14
2024-02-23T04:29:12.892Z,14.97
2024-02-23T04:31:40.113Z,14.68
2024-02-23T04:34:07.665Z,14.25
2024-02-23T04:36:34.902Z,15.18
2024-02-23T04:39:02.141Z,15.74
2024-02-23T04:41:30.076Z,15.73
2024-02-23T04:44:03.116Z,15.96
2024-02-23T04:46:31.929Z,15.11
2024-02-23T04:48:59.194Z,15.45
2024-02-23T04:51:26.624Z,15.01
2024-02-23T04:53:54.138Z,14.61
2024-02-23T04:56:24.079Z,15.07
2024-02-23T04:58:52.335Z,15.75
2024-02-23T05:01:20.652Z,16.18
2024-02-23T05:03:48.363Z,15.68
2024-02-23T05:06:15.600Z,16.11
2024-02-23T05:08:43.289Z,15.71
2024-02-23T05:11:10.781Z,16.06
2024-02-23T05:13:40.443Z,16.12
2024-02-23T05:16:07.978Z,16.61
2024-02-23T05:18:35.437Z,16.19
2024-02-23T05:21:02.860Z,16.31
2024-02-23T05:23:30.410Z,15.82
2024-02-23T05:25:57.733Z,16.57
2024-02-23T05:28:24.932Z,16.97
2024-02-23T05:30:52.722Z,17.48
2024-02-23T05:33:21.888Z,17.63
2024-02-23T05:35:52.072Z,17.77
2024-02-23T05:38:19.962Z,17.88
2024-02-23T05:40:47.245Z,17.94
2024-02-23T05:43:14.507Z,17.96
2024-02-23T05:45:42.072Z,18.15
2024-02-23T05:48:09.397Z,18.50
2024-02-23T05:50:36.764Z,18.08
2024-02-23T05:53:05.868Z,18.25
2024-02-23T05:55:33.680Z,18.30
2024-02-23T05:58:00.921Z,17.85
2024-02-23T06:00:31.031Z,18.61
2024-02-23T06:03:51.618Z,18.21
2024-02-23T06:06:51.787Z,17.83
2024-02-23T06:09:20.350Z,17.63
2024-02-23T06:11:47.912Z,17.45
2024-02-23T06:14:15.341Z,17.60
2024-02-23T06:16:42.888Z,17.70
2024-02-23T06:19:10.211Z,17.10
2024-02-23T06:21:37.854Z,17.63
2024-02-23T06:24:06.217Z,17.96
2024-02-23T06:26:33.650Z,17.37
2024-02-23T06:29:01.317Z,17.90
2024-02-23T06:31:28.986Z,17.68
2024-02-23T06:33:56.588Z,17.67
2024-02-23T06:36:23.849Z,18.16
2024-02-23T06:38:51.431Z,18.23
2024-02-23T06:41:18.913Z,17.91
2024-02-23T06:43:46.282Z,17.85
2024-02-23T06:46:13.789Z,18.39
2024-02-23T06:48:41.193Z,17.95
2024-02-23T06:51:11.400Z,17.83
2024-02-23T06:53:39.503Z,18.09
2024-02-23T06:56:07.137Z,18.47
2024-02-23T06:58:34.447Z,18.37
2024-02-23T07:01:04.319Z,18.01
2024-02-23T07:03:31.701Z,18.50
2024-02-23T07:05:59.058Z,18.47
2024-02-23T07:08:26.758Z,17.84
2024-02-23T07:10:54.475Z,18.16
2024-02-23T07:13:22.305Z,18.02
2024-02-23T07:15:50.623Z,18.43
2024-02-23T07:18:17.957Z,17.51
2024-02-23T07:20:45.653Z,17.55
2024-02-23T07:23:13.513Z,17.74
2024-02-23T07:25:42.155Z,17.49
2024-02-23T07:28:09.601Z,17.98
2024-02-23T07:30:37.385Z,17.90
2024-02-23T07:33:04.718Z,17.51
2024-02-23T07:35:32.088Z,17.54
2024-02-23T07:37:59.740Z,17.19
2024-02-23T07:40:26.983Z,16.93
2024-02-23T07:42:54.187Z,17.04
2024-02-23T07:45:21.678Z,17.45
2024-02-23T07:47:49.084Z,17.12
2024-02-23T07:50:17.248Z,17.10
2024-02-23T07:52:44.800Z,17.48
2024-02-23T07:57:40.787Z,17.08
2024-02-23T08:00:10.956Z,17.00
2024-02-23T08:02:39.719Z,17.54
2024-02-23T08:05:08.668Z,17.87
2024-02-23T08:07:36.482Z,17.78
2024-02-23T08:10:06.460Z,17.46
2024-02-23T08:12:35.830Z,17.52
2024-02-23T08:15:05.653Z,18.28
2024-02-23T08:17:33.084Z,18.09
2024-02-23T08:20:01.197Z,18.02
2024-02-23T08:22:32.861Z,18.32
2024-02-23T08:25:01.603Z,18.28
2024-02-23T08:27:29.074Z,18.42
2024-02-23T08:29:56.404Z,18.94
2024-02-23T08:32:24.026Z,18.84
2024-02-23T08:34:54.044Z,19.22
2024-02-23T08:37:21.646Z,19.09
2024-02-23T08:39:49.206Z,18.80
2024-02-23T08:42:16.446Z,19.14
2024-02-23T08:44:43.811Z,19.39
2024-02-23T08:47:11.371Z,19.15
2024-02-23T08:49:38.698Z,18.95
2024-02-23T08:52:06.278Z,19.23
2024-02-23T08:54:33.882Z,19.24
2024-02-23T08:57:01.159Z,19.17
2024-02-23T08:59:28.471Z,18.91
2024-02-23T09:01:56.043Z,19.68
2024-02-23T09:04:23.456Z,19.12
2024-02-23T09:06:51.967Z,19.41
2024-02-23T09:09:19.468Z,19.29
2024-02-23T09:11:48.527Z,19.55
2024-02-23T09:14:16.449Z,18.98
2024-02-23T09:16:44.006Z,18.95
2024-02-23T09:19:11.404Z,19.37
2024-02-23T09:21:38.710Z,18.85
2024-02-23T09:24:06.557Z,19.24
2024-02-23T09:26:34.089Z,18.81
2024-02-23T09:29:01.637Z,19.17
2024-02-23T09:31:32.849Z,19.28
2024-02-23T09:34:00.465Z,18.99
2024-02-23T09:36:27.792Z,19.12
2024-02-23T09:38:55.278Z,18.91
2024-02-23T09:41:23.566Z,19.08
2024-02-23T09:43:52.020Z,19.29
2024-02-23T09:46:20.237Z,19.40
2024-02-23T09:48:49.040Z,19.80
2024-02-23T09:51:16.334Z,20.16
2024-02-23T09:53:43.973Z,19.83
2024-02-23T09:56:11.569Z,19.65
2024-02-23T09:58:39.243Z,19.56
2024-02-23T10:01:06.805Z,19.86
2024-02-23T10:03:34.635Z,19.42
2024-02-23T10:06:06.085Z,19.58
2024-02-23T10:08:33.508Z,19.56
2024-02-23T10:11:02.376Z,19.47
2024-02-23T10:13:30.931Z,19.38
2024-02-23T10:16:10.200Z,19.62
2024-02-23T10:18:44.652Z,19.92
2024-02-23T10:21:13.192Z,19.71
2024-02-23T10:23:40.558Z,19.86
2024-02-23T10:26:08.472Z,19.87
2024-02-23T10:28:36.383Z,20.26
2024-02-23T10:31:03.973Z,20.52
2024-02-23T10:33:32.456Z,19.90
2024-02-23T10:36:01.271Z,20.07
2024-02-23T10:38:29.957Z,20.22
2024-02-23T10:40:58.150Z,20.19
2024-02-23T10:43:29.395Z,20.21
2024-02-23T10:45:56.899Z,19.97
2024-02-23T10:48:24.508Z,20.51
2024-02-23T10:50:51.822Z,20.39
2024-02-23T10:53:20.410Z,20.29
2024-02-23T10:55:47.958Z,20.00
2024-02-23T10:58:17.191Z,20.22
2024-02-23T11:00:47.059Z,20.39
2024-02-23T11:03:15.105Z,20.39
2024-02-23T11:05:42.535Z,20.12
2024-02-23T11:08:10.089Z,20.14
2024-02-23T11:10:44.230Z,20.13
2024-02-23T11:13:11.593Z,20.59
2024-02-23T11:15:42.597Z,20.46
2024-02-23T11:18:43.655Z,20.49
2024-02-23T11:21:12.028Z,20.70
2024-02-23T11:23:43.682Z,20.72
2024-02-23T11:26:11.540Z,20.93
2024-02-23T11:28:45.379Z,20.47
2024-02-23T11:31:13.634Z,20.58
2024-02-23T11:33:41.496Z,20.87
2024-02-23T11:36:10.434Z,20.61
2024-02-23T11:38:37.862Z,20.98
2024-02-23T11:41:05.800Z,20.51
2024-02-23T11:43:34.882Z,20.49
2024-02-23T11:46:02.138Z,20.83
2024-02-23T11:48:29.837Z,20.52
2024-02-23T11:50:58.028Z,20.36
2024-02-23T11:53:26.590Z,20.40
2024-02-23T11:55:54.463Z,20.61
2024-02-23T11:58:21.655Z,20.39
2024-02-23T12:00:49.030Z,20.18
2024-02-23T12:03:17.521Z,20.82
2024-02-23T12:05:45.014Z,20.71
2024-02-23T12:08:12.508Z,20.45
2024-02-23T12:10:40.472Z,20.61
2024-02-23T12:13:07.884Z,20.59
2024-02-23T12:15:35.109Z,20.56
2024-02-23T12:18:04.486Z,20.54
2024-02-23T12:20:34.402Z,19.78
2024-02-23T12:23:02.151Z,19.84
2024-02-23T12:25:29.752Z,19.68
2024-02-23T12:27:58.104Z,19.72
2024-02-23T12:30:27.760Z,20.05
2024-02-23T12:33:06.084Z,19.97
2024-02-23T12:35:33.549Z,19.61
2024-02-23T12:38:01.270Z,20.33
2024-02-23T12:40:30.321Z,20.13
2024-02-23T12:42:58.202Z,20.17
2024-02-23T12:45:26.995Z,19.60
2024-02-23T12:47:54.455Z,20.32
2024-02-23T12:50:22.171Z,19.74
2024-02-23T12:52:50.226Z,20.03
2024-02-23T12:55:17.443Z,20.00
2024-02-23T12:57:44.777Z,20.11
2024-02-23T13:00:12.616Z,20.33
2024-02-23T13:02:40.186Z,19.99
2024-02-23T13:05:08.109Z,20.31
2024-02-23T13:07:35.975Z,20.26
2024-02-23T13:10:03.406Z,20.55
2024-02-23T13:12:30.702Z,20.41
2024-02-23T13:14:58.207Z,20.53
2024-02-23T13:17:25.598Z,20.54
2024-02-23T13:20:05.231Z,20.35
2024-02-23T13:22:38.563Z,21.04
2024-02-23T13:25:05.867Z,20.62
2024-02-23T13:27:33.113Z,20.62
2024-02-23T13:30:00.620Z,20.93
2024-02-23T13:32:28.059Z,20.97
2024-02-23T13:34:55.417Z,20.55
2024-02-23T13:37:22.926Z,20.48
2024-02-23T13:39:50.245Z,20.82
2024-02-23T13:42:17.462Z,20.55
2024-02-23T13:44:45.014Z,20.41
2024-02-23T13:47:12.809Z,20.70
2024-02-23T13:49:40.541Z,20.44
2024-02-23T13:52:08.037Z,20.86
2024-02-23T13:54:35.264Z,20.60
2024-02-23T13:57:02.669Z,20.59
2024-02-23T13:59:32.915Z,20.52
2024-02-23T14:02:00.241Z,20.31
2024-02-23T14:04:27.820Z,20.47
2024-02-23T14:06:55.859Z,20.47
2024-02-23T14:09:23.092Z,20.77
2024-02-23T14:11:50.686Z,20.31
2024-02-23T14:14:18.633Z,20.33
2024-02-23T14:16:46.454Z,20.34
2024-02-23T14:19:14.133Z,20.30
2024-02-23T14:21:41.918Z,20.26
2024-02-23T14:24:09.352Z,20.27
2024-02-23T14:26:37.061Z,20.42
2024-02-23T14:29:04.551Z,20.38
2024-02-23T14:31:33.444Z,20.00
2024-02-23T14:34:01.135Z,20.19
2024-02-23T14:36:28.603Z,20.77
2024-02-23T14:38:56.035Z,20.29
2024-02-23T14:41:24.172Z,20.33
2024-02-23T14:43:52.537Z,19.84
2024-02-23T14:46:20.169Z,19.94
2024-02-23T14:48:49.716Z,20.22
2024-02-23T14:51:17.157Z,20.62
2024-02-23T14:53:44.458Z,19.88
2024-02-23T14:56:12.091Z,20.17
2024-02-23T14:58:39.983Z,19.97
2024-02-23T15:01:07.667Z,20.22
2024-02-23T15:03:35.276Z,20.36
2024-02-23T15:06:03.125Z,20.73
2024-02-23T15:08:30.592Z,20.37
2024-02-23T15:10:58.271Z,20.37
2024-02-23T15:13:25.605Z,20.30
2024-02-23T15:15:52.863Z,20.37
2024-02-23T15:18:20.375Z,20.27
2024-02-23T15:20:48.784Z,20.11
2024-02-23T15:23:16.081Z,19.99
2024-02-23T15:25:45.235Z,19.80
2024-02-23T15:28:14.542Z,20.04
2024-02-23T15:30:41.901Z,19.98
2024-02-23T15:33:09.578Z,20.26
2024-02-23T15:35:37.405Z,20.15
2024-02-23T15:38:04.736Z,20.00
2024-02-23T15:40:32.309Z,20.30
2024-02-23T15:43:01.459Z,19.90
2024-02-23T15:45:30.435Z,19.93
2024-02-23T15:47:58.188Z,20.03
2024-02-23T15:50:42.909Z,20.16
2024-02-23T15:53:16.331Z,20.54
2024-02-23T15:55:43.663Z,20.11
2024-02-23T15:58:11.894Z,20.08
2024-02-23T16:00:40.923Z,20.18
2024-02-23T16:03:08.412Z,20.33
2024-02-23T16:05:35.808Z,19.89
2024-02-23T16:08:04.838Z,20.33
2024-02-23T16:10:32.829Z,20.25
2024-02-23T16:13:00.873Z,19.94
2024-02-23T16:15:29.179Z,19.99
2024-02-23T16:17:57.751Z,20.09
2024-02-23T16:20:25.492Z,19.70
2024-02-23T16:22:53.871Z,19.94
2024-02-23T16:25:21.364Z,19.74
2024-02-23T16:27:48.627Z,19.43
2024-02-23T16:30:15.932Z,19.45
2024-02-23T16:32:43.675Z,19.33
2024-02-23T16:35:16.911Z,19.73
2024-02-23T16:37:44.788Z,19.98
2024-02-23T16:40:29.028Z,19.97
2024-02-23T16:42:57.396Z,19.98
2024-02-23T16:45:27.070Z,19.81
2024-02-23T16:47:55.499Z,19.64
2024-02-23T16:50:23.168Z,19.80
2024-02-23T16:52:50.433Z,19.75
2024-02-23T16:55:17.729Z,19.68
2024-02-23T16:57:45.366Z,19.51
2024-02-23T17:00:12.848Z,19.14
2024-02-23T17:02:40.213Z,19.54
2024-02-23T17:05:09.482Z,19.32
2024-02-23T17:07:38.432Z,19.19
2024-02-23T17:10:06.343Z,19.45
2024-02-23T17:12:34.114Z,20.03
2024-02-23T17:15:01.953Z,19.68
2024-02-23T17:17:29.255Z,19.90
2024-02-23T17:19:57.029Z,19.77
2024-02-23T17:22:26.064Z,19.56
2024-02-23T17:24:53.578Z,19.78
2024-02-23T17:27:22.199Z,20.02
2024-02-23T17:29:49.775Z,19.68
2024-02-23T17:32:17.070Z,19.68
2024-02-23T17:34:44.639Z,19.92
2024-02-23T17:37:12.113Z,19.97
2024-02-23T17:39:39.853Z,19.44
2024-02-23T17:42:07.406Z,19.92
2024-02-23T17:44:34.639Z,19.82
2024-02-23T17:47:02.867Z,19.69
2024-02-23T17:49:31.551Z,19.58
2024-02-23T17:51:58.805Z,19.01
2024-02-23T17:54:26.065Z,19.54
2024-02-23T17:56:53.840Z,19.12
2024-02-23T17:59:21.267Z,19.50
2024-02-23T18:01:48.771Z,19.63
2024-02-23T18:04:16.308Z,19.84
2024-02-23T18:06:43.651Z,19.70
2024-02-23T18:09:10.958Z,19.93
2024-02-23T18:11:39.446Z,19.49
2024-02-23T18:14:06.869Z,19.38
2024-02-23T18:16:34.065Z,19.80
2024-02-23T18:19:05.028Z,19.74
2024-02-23T18:21:32.616Z,19.77
2024-02-23T18:23:59.828Z,19.50
2024-02-23T18:26:27.339Z,19.89
2024-02-23T18:28:54.553Z,19.72
2024-02-23T18:31:21.850Z,19.79
2024-02-23T18:33:50.971Z,19.48
2024-02-23T18:36:19.110Z,20.38
2024-02-23T18:38:46.391Z,20.18
2024-02-23T18:41:13.989Z,19.78
2024-02-23T18:43:41.476Z,20.43
2024-02-23T18:46:09.501Z,20.06
2024-02-23T18:48:37.194Z,20.19
2024-02-23T18:51:04.836Z,20.13
2024-02-23T18:53:32.266Z,20.41
2024-02-23T18:55:59.974Z,20.03
2024-02-23T18:58:27.205Z,19.71
2024-02-23T19:00:57.886Z,19.65
2024-02-23T19:03:25.592Z,19.27
2024-02-23T19:05:52.984Z,19.81
2024-02-23T19:08:20.891Z,19.22
2024-02-23T19:10:48.496Z,19.43
2024-02-23T19:13:15.750Z,19.65
2024-02-23T19:15:44.935Z,18.90
2024-02-23T19:18:12.552Z,19.75
2024-02-23T19:20:39.981Z,19.58
2024-02-23T19:23:07.251Z,18.85
2024-02-23T19:25:36.250Z,19.28
2024-02-23T19:28:03.939Z,19.63
2024-02-23T19:30:36.981Z,19.02
2024-02-23T19:33:04.795Z,19.21
2024-02-23T19:35:32.115Z,19.41
2024-02-23T19:37:59.373Z,19.67
2024-02-23T19:40:26.901Z,20.15
2024-02-23T19:42:54.753Z,19.86
2024-02-23T19:45:22.457Z,19.55
2024-02-23T19:47:50.064Z,19.25
2024-02-23T19:50:17.819Z,19.33
2024-02-23T19:52:45.102Z,19.92
2024-02-23T19:55:12.627Z,19.74
2024-02-23T19:57:39.888Z,19.49
2024-02-23T20:00:07.561Z,19.77
2024-02-23T20:02:35.164Z,19.47
2024-02-23T20:05:02.631Z,20.04
2024-02-23T20:07:30.170Z,19.62
2024-02-23T20:09:59.504Z,19.18
2024-02-23T20:12:28.162Z,19.13
2024-02-23T20:14:56.038Z,19.40
2024-02-23T20:17:23.832Z,19.84
2024-02-23T20:19:51.254Z,19.54
2024-02-23T20:22:20.195Z,19.51
2024-02-23T20:24:47.864Z,19.92
2024-02-23T20:27:15.227Z,19.68
2024-02-23T20:29:42.444Z,19.77
2024-02-23T20:32:16.510Z,19.39
2024-02-23T20:34:50.594Z,19.77
2024-02-23T20:37:18.197Z,19.92
2024-02-23T20:39:45.427Z,19.91
2024-02-23T20:42:12.780Z,19.75
2024-02-23T20:44:40.542Z,19.67
2024-02-23T20:47:08.145Z,19.71
2024-02-23T20:49:35.557Z,19.41
2024-02-23T20:52:03.065Z,19.86
2024-02-23T20:54:30.334Z,19.56
2024-02-23T20:56:57.697Z,19.11
2024-02-23T20:59:25.935Z,19.50
2024-02-23T21:01:53.600Z,19.43
2024-02-23T21:04:20.898Z,19.54
2024-02-23T21:06:48.647Z,19.56
2024-02-23T21:09:17.207Z,19.73
2024-02-23T21:11:44.559Z,19.94
2024-02-23T21:14:14.982Z,20.13
2024-02-23T21:16:42.204Z,19.55
2024-02-23T21:19:09.971Z,19.34
2024-02-23T21:21:37.566Z,19.89
2024-02-23T21:24:05.420Z,19.79
2024-02-23T21:26:32.714Z,19.58
2024-02-23T21:29:00.477Z,19.20
2024-02-23T21:31:27.736Z,19.80
2024-02-23T21:33:56.642Z,19.84
2024-02-23T21:36:24.156Z,19.68
2024-02-23T21:38:51.522Z,19.59
2024-02-23T21:41:18.785Z,19.58
2024-02-23T21:43:46.236Z,19.72
2024-02-23T21:46:13.683Z,19.77
2024-02-23T21:48:42.151Z,19.56
2024-02-23T21:51:10.089Z,19.00
2024-02-23T21:53:37.826Z,19.42
2024-02-23T21:56:05.448Z,19.57
2024-02-23T21:58:33.425Z,19.66
2024-02-23T22:01:01.067Z,19.33
2024-02-23T22:03:29.371Z,19.41
2024-02-23T22:05:56.745Z,19.63
2024-02-23T22:08:24.060Z,19.47
2024-02-23T22:10:51.730Z,19.51
2024-02-23T22:13:18.946Z,19.50
2024-02-23T22:15:46.162Z,19.65
2024-02-23T22:18:14.454Z,19.49
2024-02-23T22:20:41.872Z,19.27
2024-02-23T22:23:11.416Z,19.39
2024-02-23T22:25:38.965Z,19.57
2024-02-23T22:28:06.359Z,19.45
2024-02-23T22:30:33.555Z,19.38
2024-02-23T22:33:01.272Z,20.02
2024-02-23T22:35:28.622Z,19.23
2024-02-23T22:37:55.846Z,19.44
2024-02-23T22:40:24.824Z,19.51
2024-02-23T22:42:52.131Z,19.60
2024-02-23T22:45:19.445Z,19.75
2024-02-23T22:47:48.144Z,19.77
2024-02-23T22:50:16.793Z,19.71
2024-02-23T22:52:44.029Z,19.59
2024-02-23T22:55:11.511Z,19.75
2024-02-23T22:57:39.650Z,19.92
2024-02-23T23:00:10.436Z,19.90
2024-02-23T23:02:40.061Z,19.61
2024-02-23T23:05:08.242Z,19.63
2024-02-23T23:07:37.090Z,19.93
2024-02-23T23:10:05.451Z,20.06
2024-02-23T23:12:33.018Z,19.84
2024-02-23T23:15:00.638Z,20.02
2024-02-23T23:17:28.948Z,20.15
2024-02-23T23:19:56.444Z,20.14
2024-02-23T23:22:23.880Z,20.07
2024-02-23T23:24:51.591Z,19.81
2024-02-23T23:27:18.803Z,19.68
2024-02-23T23:29:46.179Z,19.80
2024-02-23T23:32:14.030Z,20.04
2024-02-23T23:34:44.140Z,19.65
2024-02-23T23:37:11.504Z,19.92
2024-02-23T23:39:39.027Z,20.49
2024-02-23T23:42:06.252Z,20.04
2024-02-23T23:44:33.507Z,19.95
2024-02-23T23:47:00.976Z,20.08
2024-02-23T23:50:08.022Z,19.66
2024-02-23T23:52:36.703Z,19.97
2024-02-23T23:55:04.089Z,20.00
2024-02-23T23:57:32.997Z,19.61
